createdAt,value
2023-11-07T00:01:38.878Z,0.60
2023-11-07T00:04:10.061Z,0.50
2023-11-07T00:06:41.541Z,0.50
2023-11-07T00:09:09.935Z,0.50
2023-11-07T00:11:39.328Z,0.37
2023-11-07T00:14:09.007Z,0.60
2023-11-07T00:16:37.351Z,0.40
2023-11-07T00:19:06.878Z,0.67
2023-11-07T00:21:35.375Z,0.50
2023-11-07T00:24:06.197Z,0.60
2023-11-07T00:26:35.504Z,0.53
2023-11-07T00:29:03.768Z,0.83
2023-11-07T00:31:32.052Z,0.40
2023-11-07T00:34:00.568Z,0.50
2023-11-07T00:36:28.899Z,0.70
2023-11-07T00:38:58.479Z,0.40
2023-11-07T00:41:28.231Z,0.60
2023-11-07T00:43:57.145Z,0.60
2023-11-07T00:46:25.392Z,0.60
2023-11-07T00:48:53.784Z,0.73
2023-11-07T00:51:22.247Z,0.53
2023-11-07T00:53:51.379Z,0.70
2023-11-07T00:56:21.384Z,0.57
2023-11-07T00:58:51.268Z,0.40
2023-11-07T01:01:19.541Z,0.50
2023-11-07T01:03:48.107Z,0.70
2023-11-07T01:06:17.018Z,0.63
2023-11-07T01:08:45.368Z,0.60
2023-11-07T01:11:14.040Z,0.40
2023-11-07T01:13:42.279Z,0.70
2023-11-07T01:16:12.941Z,0.50
2023-11-07T01:18:41.545Z,0.53
2023-11-07T01:21:11.310Z,0.60
2023-11-07T01:23:40.094Z,0.53
2023-11-07T01:26:08.689Z,0.50
2023-11-07T01:28:37.379Z,0.70
2023-11-07T01:31:07.597Z,0.60
2023-11-07T01:33:37.834Z,0.50
2023-11-07T01:36:07.148Z,0.50
2023-11-07T01:38:35.429Z,0.50
2023-11-07T01:41:03.693Z,0.70
2023-11-07T01:43:32.853Z,0.70
2023-11-07T01:46:04.150Z,1.10
2023-11-07T01:48:33.064Z,1.00
2023-11-07T01:51:05.276Z,0.40
2023-11-07T01:53:34.256Z,0.43
2023-11-07T01:56:03.483Z,0.40
2023-11-07T01:58:31.817Z,0.20
2023-11-07T02:01:00.356Z,0.20
2023-11-07T02:03:28.702Z,0.30
2023-11-07T02:05:57.141Z,0.30
2023-11-07T02:08:27.622Z,0.20
2023-11-07T02:10:55.901Z,0.37
2023-11-07T02:13:24.162Z,0.30
2023-11-07T02:15:52.413Z,0.37
2023-11-07T02:18:20.746Z,0.20
2023-11-07T02:20:49.242Z,0.30
2023-11-07T02:23:30.724Z,0.20
2023-11-07T02:25:59.054Z,0.10
2023-11-07T02:28:27.300Z,0.30
2023-11-07T02:30:55.689Z,0.10
2023-11-07T02:33:24.059Z,0.20
2023-11-07T02:35:52.403Z,0.30
2023-11-07T02:38:21.385Z,0.10
2023-11-07T02:40:52.125Z,0.10
2023-11-07T02:43:21.113Z,0.30
2023-11-07T02:45:50.213Z,0.20
2023-11-07T02:48:18.625Z,0.37
2023-11-07T02:50:47.025Z,0.23
2023-11-07T02:53:15.536Z,0.30
2023-11-07T02:55:43.857Z,0.20
2023-11-07T02:58:14.720Z,0.40
2023-11-07T03:00:42.969Z,0.40
2023-11-07T03:03:11.369Z,0.30
2023-11-07T03:05:40.173Z,0.30
2023-11-07T03:08:09.338Z,0.20
2023-11-07T03:10:37.719Z,0.40
2023-11-07T03:13:05.969Z,0.23
2023-11-07T03:15:35.581Z,0.40
2023-11-07T03:18:04.034Z,0.30
2023-11-07T03:20:33.757Z,0.20
2023-11-07T03:23:02.148Z,0.30
2023-11-07T03:25:30.401Z,0.30
2023-11-07T03:27:58.658Z,0.23
2023-11-07T03:30:26.910Z,0.47
2023-11-07T03:32:57.510Z,0.20
2023-11-07T03:35:28.367Z,0.30
2023-11-07T03:37:56.765Z,0.40
2023-11-07T03:40:25.025Z,0.37
2023-11-07T03:42:53.324Z,0.30
2023-11-07T03:45:21.564Z,0.40
2023-11-07T03:47:51.092Z,0.70
2023-11-07T03:50:21.184Z,0.40
2023-11-07T03:52:49.449Z,0.40
2023-11-07T03:55:17.868Z,0.23
2023-11-07T03:57:46.095Z,0.50
2023-11-07T04:00:14.981Z,0.47
2023-11-07T04:02:43.303Z,0.40
2023-11-07T04:05:11.888Z,0.30
2023-11-07T04:07:41.691Z,0.30
2023-11-07T04:10:11.033Z,0.30
2023-11-07T04:12:39.357Z,0.30
2023-11-07T04:15:10.631Z,0.50
2023-11-07T04:17:39.422Z,0.40
2023-11-07T04:20:10.793Z,0.23
2023-11-07T04:22:40.182Z,0.30
2023-11-07T04:25:10.729Z,0.40
2023-11-07T04:27:39.860Z,0.50
2023-11-07T04:30:11.433Z,0.30
2023-11-07T04:32:40.669Z,0.40
2023-11-07T04:35:13.118Z,0.30
2023-11-07T04:37:41.637Z,0.30
2023-11-07T04:40:12.321Z,0.33
2023-11-07T04:42:40.594Z,0.30
2023-11-07T04:45:10.229Z,0.27
2023-11-07T04:47:38.636Z,0.30
2023-11-07T04:50:07.862Z,0.50
2023-11-07T04:52:36.103Z,0.23
2023-11-07T04:55:04.578Z,0.20
2023-11-07T04:57:34.235Z,0.33
2023-11-07T05:00:02.577Z,0.40
2023-11-07T05:02:30.895Z,0.30
2023-11-07T05:04:59.263Z,0.10
2023-11-07T05:07:27.656Z,0.30
2023-11-07T05:09:59.008Z,0.30
2023-11-07T05:12:27.419Z,0.13
2023-11-07T05:14:57.135Z,0.20
2023-11-07T05:17:25.924Z,0.10
2023-11-07T05:19:54.192Z,0.20
2023-11-07T05:22:22.472Z,0.10
2023-11-07T05:24:52.286Z,0.20
2023-11-07T05:27:22.728Z,0.20
2023-11-07T05:29:51.007Z,0.10
2023-11-07T05:32:20.659Z,0.30
2023-11-07T05:34:49.024Z,0.20
2023-11-07T05:37:17.776Z,0.20
2023-11-07T05:39:46.505Z,0.23
2023-11-07T05:42:15.909Z,0.20
2023-11-07T05:44:44.445Z,0.20
2023-11-07T05:47:12.715Z,0.23
2023-11-07T05:49:42.390Z,0.30
2023-11-07T05:52:11.971Z,0.30
2023-11-07T05:54:40.421Z,0.40
2023-11-07T05:57:10.004Z,0.50
2023-11-07T05:59:38.481Z,0.33
2023-11-07T06:02:07.159Z,0.20
2023-11-07T06:04:37.459Z,0.33
2023-11-07T06:07:07.382Z,0.50
2023-11-07T06:09:35.691Z,0.43
2023-11-07T06:12:04.210Z,0.50
2023-11-07T06:14:32.581Z,0.30
2023-11-07T06:17:00.796Z,0.40
2023-11-07T06:19:29.589Z,0.60
2023-11-07T06:21:57.914Z,0.60
2023-11-07T06:24:27.546Z,0.43
2023-11-07T06:26:56.517Z,0.40
2023-11-07T06:29:26.229Z,0.40
2023-11-07T06:31:54.979Z,0.50
2023-11-07T06:34:26.022Z,0.50
2023-11-07T06:36:55.265Z,0.50
2023-11-07T06:39:24.983Z,0.40
2023-11-07T06:41:54.775Z,0.50
2023-11-07T06:44:23.171Z,0.37
2023-11-07T06:46:53.195Z,0.30
2023-11-07T06:49:21.648Z,0.40
2023-11-07T06:51:50.327Z,0.23
2023-11-07T06:54:18.609Z,0.30
2023-11-07T06:56:48.679Z,0.30
2023-11-07T06:59:18.774Z,0.30
2023-11-07T07:01:47.245Z,0.30
2023-11-07T07:04:15.579Z,0.40
2023-11-07T07:06:43.884Z,0.40
2023-11-07T07:09:15.085Z,0.40
2023-11-07T07:11:43.456Z,0.27
2023-11-07T07:14:11.999Z,0.30
2023-11-07T07:16:42.016Z,0.37
2023-11-07T07:19:10.798Z,0.30
2023-11-07T07:21:38.088Z,0.23
2023-11-07T07:24:17.502Z,0.20
2023-11-07T07:26:47.644Z,0.30
2023-11-07T07:29:17.618Z,0.20
2023-11-07T07:31:49.975Z,0.20
2023-11-07T07:34:18.898Z,0.40
2023-11-07T07:36:48.872Z,0.30
2023-11-07T07:39:29.591Z,0.20
2023-11-07T07:41:59.028Z,0.20
2023-11-07T07:44:29.222Z,0.30
2023-11-07T07:46:58.931Z,0.50
2023-11-07T07:49:28.078Z,0.20
2023-11-07T07:51:56.858Z,0.20
2023-11-07T07:56:56.982Z,0.33
2023-11-07T07:59:25.659Z,0.20
2023-11-07T08:01:57.083Z,0.50
2023-11-07T08:04:28.238Z,0.40
2023-11-07T08:06:56.564Z,0.50
2023-11-07T08:09:26.658Z,0.20
2023-11-07T08:11:57.875Z,0.50
2023-11-07T08:14:26.227Z,0.40
2023-11-07T08:16:54.646Z,0.40
2023-11-07T08:19:23.751Z,0.60
2023-11-07T08:21:53.469Z,0.50
2023-11-07T08:24:21.734Z,0.50
2023-11-07T08:26:50.515Z,0.30
2023-11-07T08:29:18.819Z,0.40
2023-11-07T08:31:47.153Z,0.47
2023-11-07T08:34:15.709Z,0.40
2023-11-07T08:36:55.096Z,0.47
2023-11-07T08:39:31.451Z,0.50
2023-11-07T08:42:01.280Z,0.67
2023-11-07T08:44:29.526Z,0.50
2023-11-07T08:46:58.511Z,0.40
2023-11-07T08:49:26.933Z,0.40
2023-11-07T08:51:58.801Z,0.30
2023-11-07T08:54:27.091Z,0.30
2023-11-07T08:56:57.130Z,0.30
2023-11-07T08:59:25.431Z,0.30
2023-11-07T09:01:55.861Z,0.30
2023-11-07T09:04:24.128Z,0.40
2023-11-07T09:06:55.020Z,0.20
2023-11-07T09:09:24.860Z,0.30
2023-11-07T09:11:54.234Z,0.30
2023-11-07T09:14:25.010Z,0.43
2023-11-07T09:16:53.949Z,0.30
2023-11-07T09:19:22.290Z,0.40
2023-11-07T09:21:50.829Z,0.40
2023-11-07T09:24:19.362Z,0.30
2023-11-07T09:26:47.867Z,0.20
2023-11-07T09:29:17.922Z,0.40
2023-11-07T09:31:48.710Z,0.20
2023-11-07T09:34:17.484Z,0.30
2023-11-07T09:36:46.992Z,0.10
2023-11-07T09:39:15.438Z,0.20
2023-11-07T09:41:46.449Z,0.17
2023-11-07T09:44:15.054Z,0.20
2023-11-07T09:46:43.589Z,0.20
2023-11-07T09:49:13.958Z,0.30
2023-11-07T09:51:42.568Z,0.30
2023-11-07T09:54:13.592Z,0.20
2023-11-07T09:56:44.060Z,0.30
2023-11-07T09:59:34.693Z,0.20
2023-11-07T10:02:03.056Z,0.27
2023-11-07T10:04:35.503Z,0.30
2023-11-07T10:07:04.354Z,0.23
2023-11-07T10:09:33.491Z,0.40
2023-11-07T10:12:02.454Z,0.43
2023-11-07T10:14:34.923Z,0.37
2023-11-07T10:17:05.673Z,0.30
2023-11-07T10:19:36.666Z,0.27
2023-11-07T10:22:08.706Z,0.30
2023-11-07T10:24:45.274Z,0.30
2023-11-07T10:27:13.905Z,0.40
2023-11-07T10:29:59.241Z,0.30
2023-11-07T10:32:45.895Z,0.20
2023-11-07T10:35:17.056Z,0.27
2023-11-07T10:37:45.809Z,0.20
2023-11-07T10:40:14.215Z,0.37
2023-11-07T10:42:48.527Z,0.20
2023-11-07T10:45:18.614Z,0.03
2023-11-07T10:47:50.180Z,0.27
2023-11-07T10:50:20.993Z,0.20
2023-11-07T10:52:50.272Z,0.10
2023-11-07T10:55:18.621Z,0.20
2023-11-07T10:57:53.074Z,0.20
2023-11-07T11:00:22.640Z,0.40
2023-11-07T11:02:56.687Z,0.37
2023-11-07T11:05:26.648Z,0.30
2023-11-07T11:08:00.196Z,0.30
2023-11-07T11:10:30.878Z,0.40
2023-11-07T11:13:01.735Z,0.40
2023-11-07T11:15:33.072Z,0.30
2023-11-07T11:18:06.029Z,0.40
2023-11-07T11:20:45.516Z,0.50
2023-11-07T11:23:23.336Z,0.40
2023-11-07T11:26:05.976Z,0.50
2023-11-07T11:28:41.585Z,0.40
2023-11-07T11:31:15.916Z,0.37
2023-11-07T11:33:45.106Z,0.30
2023-11-07T11:36:36.220Z,0.40
2023-11-07T11:39:24.798Z,0.30
2023-11-07T11:41:56.498Z,0.20
2023-11-07T11:44:25.922Z,0.23
2023-11-07T11:46:56.885Z,0.40
2023-11-07T11:49:26.072Z,0.30
2023-11-07T11:51:56.783Z,0.60
2023-11-07T11:54:53.403Z,0.60
2023-11-07T11:57:23.414Z,0.40
2023-11-07T11:59:55.665Z,0.40
2023-11-07T12:02:40.836Z,0.23
2023-11-07T12:05:20.114Z,0.23
2023-11-07T12:07:50.647Z,0.30
2023-11-07T12:10:22.462Z,0.30
2023-11-07T12:12:59.245Z,0.40
2023-11-07T12:15:28.435Z,0.33
2023-11-07T12:17:57.127Z,0.30
2023-11-07T12:20:25.437Z,0.27
2023-11-07T12:22:55.053Z,0.30
2023-11-07T12:25:24.135Z,0.20
2023-11-07T12:28:03.780Z,0.23
2023-11-07T12:30:32.996Z,0.30
2023-11-07T12:33:02.321Z,0.20
2023-11-07T12:35:31.347Z,0.20
2023-11-07T12:38:05.040Z,0.23
2023-11-07T12:40:34.710Z,0.20
2023-11-07T12:43:05.086Z,0.23
2023-11-07T12:45:33.666Z,0.20
2023-11-07T12:48:05.167Z,0.20
2023-11-07T12:50:35.025Z,0.30
2023-11-07T12:53:07.471Z,0.20
2023-11-07T12:55:38.829Z,0.30
2023-11-07T12:58:08.486Z,0.20
2023-11-07T13:00:58.487Z,0.37
2023-11-07T13:03:30.115Z,0.10
2023-11-07T13:06:00.001Z,0.20
2023-11-07T13:08:30.780Z,0.20
2023-11-07T13:11:13.977Z,0.10
2023-11-07T13:13:44.082Z,0.30
2023-11-07T13:16:12.532Z,0.30
2023-11-07T13:18:46.897Z,0.30
2023-11-07T13:21:15.551Z,0.30
2023-11-07T13:23:45.190Z,0.30
2023-11-07T13:26:13.462Z,0.10
2023-11-07T13:28:43.926Z,0.10
2023-11-07T13:31:14.196Z,0.10
2023-11-07T13:33:44.400Z,0.30
2023-11-07T13:36:15.017Z,0.20
2023-11-07T13:38:47.166Z,0.10
2023-11-07T13:41:15.888Z,0.10
2023-11-07T13:43:44.165Z,0.00
2023-11-07T13:46:18.371Z,0.10
2023-11-07T13:48:47.259Z,0.13
2023-11-07T13:51:15.917Z,0.10
2023-11-07T13:53:45.565Z,0.10
2023-11-07T13:56:15.991Z,0.10
2023-11-07T13:58:44.645Z,0.10
2023-11-07T14:01:14.011Z,0.10
2023-11-07T14:03:42.935Z,0.20
2023-11-07T14:06:11.463Z,0.20
2023-11-07T14:08:39.768Z,0.17
2023-11-07T14:11:09.490Z,0.13
2023-11-07T14:13:37.782Z,0.53
2023-11-07T14:16:06.662Z,0.10
2023-11-07T14:18:35.019Z,0.20
2023-11-07T14:21:04.338Z,0.30
2023-11-07T14:23:34.269Z,0.37
2023-11-07T14:26:03.774Z,0.50
2023-11-07T14:31:04.724Z,0.40
2023-11-07T14:33:33.292Z,0.30
2023-11-07T14:36:01.773Z,0.77
2023-11-07T14:38:35.616Z,0.47
2023-11-07T14:41:06.007Z,2.33
2023-11-07T14:43:36.196Z,1.90
2023-11-07T14:46:06.723Z,4.70
2023-11-07T14:48:35.788Z,2.63
2023-11-07T14:51:04.576Z,1.80
2023-11-07T14:53:32.986Z,1.73
2023-11-07T14:56:01.283Z,1.53
2023-11-07T14:58:29.516Z,0.70
2023-11-07T15:00:59.144Z,0.50
2023-11-07T15:03:27.455Z,0.20
2023-11-07T15:05:55.995Z,0.33
2023-11-07T15:08:24.391Z,0.40
2023-11-07T15:10:54.039Z,0.50
2023-11-07T15:13:22.415Z,0.70
2023-11-07T15:15:51.094Z,0.70
2023-11-07T15:18:24.945Z,0.73
2023-11-07T15:20:53.815Z,1.20
2023-11-07T15:23:22.583Z,1.10
2023-11-07T15:25:50.811Z,1.10
2023-11-07T15:28:19.332Z,1.00
2023-11-07T15:30:47.598Z,2.90
2023-11-07T15:33:15.959Z,4.47
2023-11-07T15:35:45.946Z,4.40
2023-11-07T15:38:14.299Z,2.53
2023-11-07T15:40:42.812Z,1.00
2023-11-07T15:43:11.060Z,1.30
2023-11-07T15:45:39.579Z,0.80
2023-11-07T15:48:11.635Z,0.40
2023-11-07T15:50:41.146Z,0.60
2023-11-07T15:53:11.067Z,0.60
2023-11-07T15:55:41.337Z,0.80
2023-11-07T15:58:09.839Z,0.80
2023-11-07T16:00:38.204Z,0.60
2023-11-07T16:03:07.498Z,0.60
2023-11-07T16:05:38.869Z,0.27
2023-11-07T16:08:09.048Z,0.30
2023-11-07T16:10:39.565Z,0.30
2023-11-07T16:13:10.693Z,0.40
2023-11-07T16:15:40.063Z,0.20
2023-11-07T16:18:08.614Z,0.20
2023-11-07T16:20:36.935Z,0.20
2023-11-07T16:23:05.533Z,0.30
2023-11-07T16:25:35.005Z,0.27
2023-11-07T16:28:06.533Z,0.20
2023-11-07T16:30:35.068Z,0.30
2023-11-07T16:33:03.458Z,0.53
2023-11-07T16:35:31.770Z,0.50
2023-11-07T16:38:00.224Z,0.50
2023-11-07T16:40:28.500Z,0.50
2023-11-07T16:42:58.335Z,0.30
2023-11-07T16:45:28.156Z,0.20
2023-11-07T16:47:56.516Z,0.30
2023-11-07T16:50:25.000Z,0.57
2023-11-07T16:52:53.705Z,0.57
2023-11-07T16:55:22.043Z,0.30
2023-11-07T16:57:50.358Z,0.37
2023-11-07T17:00:20.650Z,0.60
2023-11-07T17:02:50.441Z,0.40
2023-11-07T17:05:19.697Z,0.40
2023-11-07T17:07:50.418Z,0.40
2023-11-07T17:10:22.016Z,0.37
2023-11-07T17:12:51.079Z,0.57
2023-11-07T17:15:19.481Z,0.50
2023-11-07T17:17:52.489Z,0.40
2023-11-07T17:20:20.883Z,0.37
2023-11-07T17:22:49.437Z,0.50
2023-11-07T17:25:17.758Z,0.50
2023-11-07T17:27:48.383Z,0.50
2023-11-07T17:30:21.086Z,0.40
2023-11-07T17:32:51.196Z,0.37
2023-11-07T17:35:19.623Z,0.40
2023-11-07T17:37:48.772Z,0.40
2023-11-07T17:40:17.446Z,0.47
2023-11-07T17:42:46.466Z,0.40
2023-11-07T17:45:15.631Z,0.53
2023-11-07T17:47:44.074Z,0.40
2023-11-07T17:50:14.087Z,0.40
2023-11-07T17:52:43.399Z,0.50
2023-11-07T17:55:15.129Z,0.40
2023-11-07T17:57:43.507Z,0.40
2023-11-07T18:00:12.780Z,0.40
2023-11-07T18:02:41.139Z,0.40
2023-11-07T18:05:11.455Z,0.47
2023-11-07T18:07:41.292Z,0.50
2023-11-07T18:10:11.311Z,0.40
2023-11-07T18:12:40.089Z,0.43
2023-11-07T18:15:09.711Z,0.50
2023-11-07T18:17:38.257Z,1.57
2023-11-07T18:20:09.429Z,0.77
2023-11-07T18:22:40.272Z,0.60
2023-11-07T18:25:09.769Z,0.60
2023-11-07T18:27:39.491Z,0.60
2023-11-07T18:30:09.948Z,0.70
2023-11-07T18:32:39.080Z,0.60
2023-11-07T18:35:08.588Z,0.50
2023-11-07T18:37:36.891Z,0.60
2023-11-07T18:40:07.885Z,0.80
2023-11-07T18:42:36.526Z,0.83
2023-11-07T18:45:07.089Z,0.63
2023-11-07T18:47:35.631Z,0.70
2023-11-07T18:50:03.885Z,0.70
2023-11-07T18:52:34.065Z,0.80
2023-11-07T18:55:06.375Z,0.70
2023-11-07T18:57:36.349Z,1.97
2023-11-07T19:00:05.377Z,1.00
2023-11-07T19:02:33.728Z,0.70
2023-11-07T19:05:02.037Z,0.50
2023-11-07T19:07:30.580Z,0.60
2023-11-07T19:09:58.903Z,0.70
2023-11-07T19:12:27.977Z,1.63
2023-11-07T19:14:57.618Z,0.60
2023-11-07T19:17:26.165Z,0.50
2023-11-07T19:19:56.340Z,0.57
2023-11-07T19:22:24.687Z,0.43
2023-11-07T19:24:52.964Z,1.30
2023-11-07T19:27:23.001Z,1.00
2023-11-07T19:29:51.380Z,1.10
2023-11-07T19:32:21.188Z,1.27
2023-11-07T19:34:49.444Z,1.10
2023-11-07T19:37:17.700Z,0.77
2023-11-07T19:39:48.833Z,0.87
2023-11-07T19:42:17.110Z,0.70
2023-11-07T19:44:47.408Z,1.10
2023-11-07T19:47:15.740Z,1.07
2023-11-07T19:49:45.345Z,0.90
2023-11-07T19:52:13.759Z,0.57
2023-11-07T19:54:42.044Z,1.10
2023-11-07T19:57:11.686Z,0.97
2023-11-07T19:59:40.427Z,0.60
2023-11-07T20:02:09.351Z,1.47
2023-11-07T20:04:38.864Z,1.90
2023-11-07T20:07:08.942Z,1.97
2023-11-07T20:09:37.700Z,1.83
2023-11-07T20:12:06.501Z,1.80
2023-11-07T20:14:34.822Z,1.70
2023-11-07T20:17:03.306Z,1.67
2023-11-07T20:19:31.642Z,1.80
2023-11-07T20:21:59.913Z,1.30
2023-11-07T20:24:29.551Z,1.63
2023-11-07T20:26:57.796Z,1.37
2023-11-07T20:29:26.614Z,1.37
2023-11-07T20:31:54.879Z,1.60
2023-11-07T20:34:23.193Z,1.40
2023-11-07T20:36:51.887Z,1.43
2023-11-07T20:39:20.742Z,1.30
2023-11-07T20:41:51.696Z,1.20
2023-11-07T20:44:26.228Z,1.40
2023-11-07T20:46:57.374Z,1.50
2023-11-07T20:49:25.811Z,1.53
2023-11-07T20:51:54.196Z,1.50
2023-11-07T20:54:22.455Z,1.20
2023-11-07T20:56:52.111Z,1.50
2023-11-07T20:59:20.349Z,1.27
2023-11-07T21:01:48.601Z,1.40
2023-11-07T21:04:17.233Z,1.30
2023-11-07T21:06:46.932Z,1.20
2023-11-07T21:09:18.503Z,1.10
2023-11-07T21:11:47.122Z,1.00
2023-11-07T21:14:17.042Z,1.10
2023-11-07T21:16:45.281Z,1.10
2023-11-07T21:19:13.907Z,1.23
2023-11-07T21:21:42.294Z,1.30
2023-11-07T21:24:11.010Z,1.50
2023-11-07T21:26:39.247Z,1.20
2023-11-07T21:29:08.310Z,1.17
2023-11-07T21:31:37.968Z,1.10
2023-11-07T21:34:07.764Z,0.87
2023-11-07T21:36:36.203Z,0.97
2023-11-07T21:39:07.716Z,0.90
2023-11-07T21:41:35.967Z,1.23
2023-11-07T21:44:05.113Z,1.03
2023-11-07T21:46:33.422Z,1.93
2023-11-07T21:49:03.121Z,1.70
2023-11-07T21:51:32.847Z,1.90
2023-11-07T21:54:03.322Z,1.60
2023-11-07T21:56:31.579Z,2.40
2023-11-07T21:58:59.929Z,2.80
2023-11-07T22:01:28.462Z,5.40
2023-11-07T22:03:56.727Z,3.77
2023-11-07T22:06:26.442Z,6.33
2023-11-07T22:08:54.698Z,4.70
2023-11-07T22:11:22.947Z,2.70
2023-11-07T22:13:51.187Z,3.13
2023-11-07T22:16:21.106Z,2.00
2023-11-07T22:18:49.769Z,2.17
2023-11-07T22:21:18.958Z,2.50
2023-11-07T22:23:48.704Z,2.70
2023-11-07T22:26:16.981Z,4.47
2023-11-07T22:28:45.299Z,5.50
2023-11-07T22:31:13.580Z,4.60
2023-11-07T22:33:41.939Z,3.27
2023-11-07T22:36:10.410Z,3.00
2023-11-07T22:38:38.672Z,2.03
2023-11-07T22:41:08.296Z,3.57
2023-11-07T22:43:36.579Z,1.80
2023-11-07T22:46:05.079Z,3.40
2023-11-07T22:48:33.405Z,1.83
2023-11-07T22:51:02.667Z,1.90
2023-11-07T22:53:30.993Z,1.50
2023-11-07T22:56:01.210Z,1.40
2023-11-07T22:58:31.117Z,2.90
2023-11-07T23:01:00.093Z,1.80
2023-11-07T23:03:28.393Z,1.30
2023-11-07T23:05:56.741Z,1.07
2023-11-07T23:08:25.027Z,0.83
2023-11-07T23:10:53.967Z,0.70
2023-11-07T23:13:22.228Z,0.70
2023-11-07T23:15:51.858Z,0.80
2023-11-07T23:18:20.186Z,0.80
2023-11-07T23:20:48.788Z,1.00
2023-11-07T23:23:17.056Z,0.73
2023-11-07T23:25:47.031Z,0.70
2023-11-07T23:28:15.811Z,0.83
2023-11-07T23:30:44.458Z,0.80
2023-11-07T23:33:14.541Z,0.80
2023-11-07T23:35:42.925Z,0.60
2023-11-07T23:38:11.346Z,0.80
2023-11-07T23:40:40.645Z,0.83
2023-11-07T23:43:08.895Z,0.80
2023-11-07T23:45:37.173Z,0.80
2023-11-07T23:48:06.003Z,0.60
2023-11-07T23:50:35.697Z,0.60
2023-11-07T23:53:04.032Z,0.60
2023-11-07T23:55:32.795Z,0.50
2023-11-07T23:58:01.340Z,0.60
